Time,TemperatureF,DewpointF,PressureIn,WindDirection,WindDirectionDegrees,WindSpeedMPH,WindSpeedGustMPH,Humidity,HourlyPrecipIn,Conditions,Clouds,dailyrainin,SolarRadiationWatts/m^2,SoftwareType,DateUTC
2013-01-30 00:01:00,59.0,59.0,-100.00,NNW,335,1.0,7.0,100,0.07,,,1.31,0.000000,,2013-01-30 10:01:00,
2013-01-30 00:22:00,59.0,59.0,-100.00,NNW,335,1.0,7.0,100,0.07,,,1.31,0.000000,,2013-01-30 10:22:00,
2013-01-30 00:32:00,59.0,59.0,-100.00,NNW,335,1.0,7.0,100,0.07,,,1.31,0.000000,,2013-01-30 10:32:00,
2013-01-30 00:42:00,59.0,59.0,-100.00,NNW,335,1.0,7.0,100,0.07,,,1.31,0.000000,,2013-01-30 10:42:00,
2013-01-30 00:52:00,59.0,59.0,-100.00,NNW,335,1.0,7.0,100,0.07,,,1.31,0.000000,,2013-01-30 10:52:00,
2013-01-30 01:01:00,59.0,59.0,-100.00,North,354,3.0,4.0,100,0.07,,,1.32,0.000000,,2013-01-30 11:01:00,
2013-01-30 01:33:00,59.0,59.0,-100.00,North,354,3.0,4.0,100,0.07,,,1.32,0.000000,,2013-01-30 11:33:00,
2013-01-30 01:42:00,59.0,59.0,-100.00,North,354,3.0,4.0,100,0.07,,,1.32,0.000000,,2013-01-30 11:42:00,
2013-01-30 01:52:00,59.0,59.0,-100.00,North,354,3.0,4.0,100,0.07,,,1.32,0.000000,,2013-01-30 11:52:00,
2013-01-30 02:01:00,59.0,59.0,-100.00,SSE,147,7.0,13.0,100,0.17,,,1.46,0.000000,,2013-01-30 12:01:00,
2013-01-30 02:33:00,59.0,59.0,-100.00,SSE,147,7.0,13.0,100,0.17,,,1.46,0.000000,,2013-01-30 12:33:00,
2013-01-30 02:43:00,59.0,59.0,-100.00,SSE,147,7.0,13.0,100,0.17,,,1.46,0.000000,,2013-01-30 12:43:00,
2013-01-30 03:01:00,59.0,59.0,-100.00,SSE,161,1.0,11.0,100,0.10,,,1.47,0.000000,,2013-01-30 13:01:00,
2013-01-30 03:23:00,59.0,59.0,-100.00,SSE,161,1.0,11.0,100,0.10,,,1.47,0.000000,,2013-01-30 13:23:00,
2013-01-30 03:33:00,59.0,59.0,-100.00,SSE,161,1.0,11.0,100,0.10,,,1.47,0.000000,,2013-01-30 13:33:00,
2013-01-30 03:43:00,59.0,59.0,-100.00,SSE,161,1.0,11.0,100,0.10,,,1.47,0.000000,,2013-01-30 13:43:00,
2013-01-30 03:53:00,59.0,59.0,-100.00,SSE,161,1.0,11.0,100,0.10,,,1.47,0.000000,,2013-01-30 13:53:00,
2013-01-30 04:01:00,59.0,59.0,-100.00,NW,306,6.0,9.0,100,0.11,,,1.48,0.000000,,2013-01-30 14:01:00,
2013-01-30 04:33:00,59.0,59.0,-100.00,NW,306,6.0,9.0,100,0.11,,,1.48,0.000000,,2013-01-30 14:33:00,
2013-01-30 04:43:00,59.0,59.0,-100.00,NW,306,6.0,9.0,100,0.11,,,1.48,0.000000,,2013-01-30 14:43:00,
2013-01-30 04:53:00,59.0,59.0,-100.00,NW,306,6.0,9.0,100,0.11,,,1.48,0.000000,,2013-01-30 14:53:00,
2013-01-30 05:01:00,59.0,59.0,-100.00,NW,318,7.0,12.0,100,0.03,,,1.51,0.000000,,2013-01-30 15:01:00,
2013-01-30 05:33:00,59.0,59.0,-100.00,NW,318,7.0,12.0,100,0.03,,,1.51,0.000000,,2013-01-30 15:33:00,
2013-01-30 05:43:00,59.0,59.0,-100.00,NW,318,7.0,12.0,100,0.03,,,1.51,0.000000,,2013-01-30 15:43:00,
2013-01-30 05:53:00,59.0,59.0,-100.00,NW,318,7.0,12.0,100,0.03,,,1.51,0.000000,,2013-01-30 15:53:00,
2013-01-30 06:01:00,59.0,58.0,-100.00,NW,322,7.0,12.0,97,0.00,,,1.37,0.000000,,2013-01-30 16:01:00,
2013-01-30 06:33:00,59.0,58.0,-100.00,NW,322,7.0,12.0,97,0.00,,,1.37,0.000000,,2013-01-30 16:33:00,
2013-01-30 06:42:00,59.0,58.0,-100.00,NW,322,7.0,12.0,97,0.00,,,1.37,0.000000,,2013-01-30 16:42:00,
2013-01-30 06:52:00,59.0,58.0,-100.00,NW,322,7.0,12.0,97,0.00,,,1.37,0.000000,,2013-01-30 16:52:00,
2013-01-30 07:01:00,59.0,58.0,-100.00,NW,304,6.0,10.0,95,0.00,,,1.35,0.000000,,2013-01-30 17:01:00,
2013-01-30 07:33:00,59.0,58.0,-100.00,NW,304,6.0,10.0,95,0.00,,,1.35,0.000000,,2013-01-30 17:33:00,
2013-01-30 07:43:00,59.0,58.0,-100.00,NW,304,6.0,10.0,95,0.00,,,1.35,0.000000,,2013-01-30 17:43:00,
2013-01-30 07:53:00,59.0,58.0,-100.00,NW,304,6.0,10.0,95,0.00,,,1.35,0.000000,,2013-01-30 17:53:00,
2013-01-30 08:01:00,60.0,57.0,-100.00,NW,324,6.0,14.0,91,0.00,,,-99.99,27.000000,,2013-01-30 18:01:00,
2013-01-30 08:33:00,60.0,57.0,-100.00,NW,324,6.0,14.0,91,0.00,,,-99.99,27.000000,,2013-01-30 18:33:00,
2013-01-30 08:43:00,60.0,57.0,-100.00,NW,324,6.0,14.0,91,0.00,,,-99.99,27.000000,,2013-01-30 18:43:00,
2013-01-30 08:52:00,60.0,57.0,-100.00,NW,324,6.0,14.0,91,0.00,,,-99.99,27.000000,,2013-01-30 18:52:00,
2013-01-30 09:01:00,63.0,57.0,-100.00,NW,311,2.0,7.0,82,0.00,,,1.29,112.000000,,2013-01-30 19:01:00,
2013-01-30 09:33:00,63.0,57.0,-100.00,NW,311,2.0,7.0,82,0.00,,,1.29,112.000000,,2013-01-30 19:33:00,
2013-01-30 09:43:00,63.0,57.0,-100.00,NW,311,2.0,7.0,82,0.00,,,1.29,112.000000,,2013-01-30 19:43:00,
2013-01-30 09:53:00,63.0,57.0,-100.00,NW,311,2.0,7.0,82,0.00,,,1.29,112.000000,,2013-01-30 19:53:00,
2013-01-30 10:01:00,66.0,58.0,-100.00,SSE,161,4.0,9.0,75,0.00,,,1.29,386.000000,,2013-01-30 20:01:00,
2013-01-30 10:22:00,66.0,58.0,-100.00,SSE,161,4.0,9.0,75,0.00,,,1.29,386.000000,,2013-01-30 20:22:00,
2013-01-30 10:33:00,66.0,58.0,-100.00,SSE,161,4.0,9.0,75,0.00,,,1.29,386.000000,,2013-01-30 20:33:00,
2013-01-30 10:42:00,66.0,58.0,-100.00,SSE,161,4.0,9.0,75,0.00,,,1.29,386.000000,,2013-01-30 20:42:00,
2013-01-30 10:53:00,66.0,58.0,-100.00,SSE,161,4.0,9.0,75,0.00,,,1.29,386.000000,,2013-01-30 20:53:00,
2013-01-30 11:01:00,69.0,60.0,-100.00,SSE,153,7.0,13.0,73,0.00,,,1.29,639.000000,,2013-01-30 21:01:00,
2013-01-30 11:23:00,69.0,60.0,-100.00,SSE,153,7.0,13.0,73,0.00,,,1.29,639.000000,,2013-01-30 21:23:00,
2013-01-30 11:32:00,69.0,60.0,-100.00,SSE,153,7.0,13.0,73,0.00,,,1.29,639.000000,,2013-01-30 21:32:00,
2013-01-30 11:43:00,69.0,60.0,-100.00,SSE,153,7.0,13.0,73,0.00,,,1.29,639.000000,,2013-01-30 21:43:00,
2013-01-30 11:52:00,69.0,60.0,-100.00,SSE,153,7.0,13.0,73,0.00,,,1.29,639.000000,,2013-01-30 21:52:00,
2013-01-30 12:01:00,68.0,60.0,-100.00,South,173,7.0,12.0,75,0.00,,,1.29,554.000000,,2013-01-30 22:01:00,
2013-01-30 12:22:00,68.0,60.0,-100.00,South,173,7.0,12.0,75,0.00,,,1.29,554.000000,,2013-01-30 22:22:00,
2013-01-30 12:33:00,68.0,60.0,-100.00,South,173,7.0,12.0,75,0.00,,,1.29,554.000000,,2013-01-30 22:33:00,
2013-01-30 12:42:00,68.0,60.0,-100.00,South,173,7.0,12.0,75,0.00,,,1.29,554.000000,,2013-01-30 22:42:00,
2013-01-30 12:52:00,68.0,60.0,-100.00,South,173,7.0,12.0,75,0.00,,,1.29,554.000000,,2013-01-30 22:52:00,
2013-01-30 13:01:00,67.0,60.0,-100.00,SSE,167,5.0,12.0,79,0.00,,,1.29,417.000000,,2013-01-30 23:01:00,
2013-01-30 13:23:00,67.0,60.0,-100.00,SSE,167,5.0,12.0,79,0.00,,,1.29,417.000000,,2013-01-30 23:23:00,
2013-01-30 13:33:00,67.0,60.0,-100.00,SSE,167,5.0,12.0,79,0.00,,,1.29,417.000000,,2013-01-30 23:33:00,
2013-01-30 13:42:00,67.0,60.0,-100.00,SSE,167,5.0,12.0,79,0.00,,,1.29,417.000000,,2013-01-30 23:42:00,
2013-01-30 13:52:00,67.0,60.0,-100.00,SSE,167,5.0,12.0,79,0.00,,,1.29,417.000000,,2013-01-30 23:52:00,
2013-01-30 14:01:00,64.0,62.0,-100.00,SSE,152,3.0,12.0,94,0.07,,,1.26,109.000000,,2013-01-31 00:01:00,
2013-01-30 14:32:00,64.0,62.0,-100.00,SSE,152,3.0,12.0,94,0.07,,,1.26,109.000000,,2013-01-31 00:32:00,
2013-01-30 14:42:00,64.0,62.0,-100.00,SSE,152,3.0,12.0,94,0.07,,,1.26,109.000000,,2013-01-31 00:42:00,
2013-01-30 14:53:00,64.0,62.0,-100.00,SSE,152,3.0,12.0,94,0.07,,,1.26,109.000000,,2013-01-31 00:53:00,
2013-01-30 15:01:00,63.0,62.0,-100.00,SE,144,5.0,9.0,96,0.43,,,1.60,75.000000,,2013-01-31 01:01:00,
2013-01-30 15:32:00,63.0,62.0,-100.00,SE,144,5.0,9.0,96,0.43,,,1.60,75.000000,,2013-01-31 01:32:00,
2013-01-30 15:42:00,63.0,62.0,-100.00,SE,144,5.0,9.0,96,0.43,,,1.60,75.000000,,2013-01-31 01:42:00,
2013-01-30 15:52:00,63.0,62.0,-100.00,SE,144,5.0,9.0,96,0.43,,,1.60,75.000000,,2013-01-31 01:52:00,
2013-01-30 16:01:00,63.0,62.0,-100.00,SE,143,5.0,8.0,96,0.07,,,1.67,95.000000,,2013-01-31 02:01:00,
2013-01-30 16:22:00,63.0,62.0,-100.00,SE,143,5.0,8.0,96,0.07,,,1.67,95.000000,,2013-01-31 02:22:00,
2013-01-30 16:32:00,63.0,62.0,-100.00,SE,143,5.0,8.0,96,0.07,,,1.67,95.000000,,2013-01-31 02:32:00,
2013-01-30 16:42:00,63.0,62.0,-100.00,SE,143,5.0,8.0,96,0.07,,,1.67,95.000000,,2013-01-31 02:42:00,
2013-01-30 16:52:00,63.0,62.0,-100.00,SE,143,5.0,8.0,96,0.07,,,1.67,95.000000,,2013-01-31 02:52:00,
2013-01-30 17:01:00,63.0,62.0,-100.00,SE,137,1.0,8.0,97,0.00,,,1.67,57.000000,,2013-01-31 03:01:00,
2013-01-30 17:32:00,63.0,62.0,-100.00,SE,137,1.0,8.0,97,0.00,,,1.67,57.000000,,2013-01-31 03:32:00,
2013-01-30 17:42:00,63.0,62.0,-100.00,SE,137,1.0,8.0,97,0.00,,,1.67,57.000000,,2013-01-31 03:42:00,
2013-01-30 17:52:00,63.0,62.0,-100.00,SE,137,1.0,8.0,97,0.00,,,1.67,57.000000,,2013-01-31 03:52:00,
2013-01-30 18:01:00,61.0,56.0,-100.00,North,5,5.0,7.0,85,0.00,,,1.67,32.000000,,2013-01-31 04:01:00,
2013-01-30 18:32:00,61.0,56.0,-100.00,North,5,5.0,7.0,85,0.00,,,1.67,32.000000,,2013-01-31 04:32:00,
2013-01-30 18:42:00,61.0,56.0,-100.00,North,5,5.0,7.0,85,0.00,,,1.67,32.000000,,2013-01-31 04:42:00,
2013-01-30 18:52:00,61.0,56.0,-100.00,North,5,5.0,7.0,85,0.00,,,1.67,32.000000,,2013-01-31 04:52:00,
2013-01-30 19:01:00,62.0,58.0,-100.00,SE,143,3.0,7.0,88,0.00,,,1.65,2.000000,,2013-01-31 05:01:00,
2013-01-30 19:42:00,62.0,58.0,-100.00,SE,143,3.0,7.0,88,0.00,,,1.65,2.000000,,2013-01-31 05:42:00,
2013-01-30 19:52:00,62.0,58.0,-100.00,SE,143,3.0,7.0,88,0.00,,,1.65,2.000000,,2013-01-31 05:52:00,